Nearby METAR Reports

 

KSJC - San Jose, California, USA
Distance from station: NE 9mi, 14km
Updated: Thu, 19-Sep-2019 7:53pm PDT
Clear
Clear
 Wind from NNW
Wind: NNW 10 mph , 17 km/h
Temperature: 66°F , 19°C
Dew Point: 54°F , 12°C
Humidity: 64%
Barometer: 29.91 inHg , 1012.9 hPa
Clouds: Clear
Visibility: 10 miles , 16 km
2019/09/20 02:53 KSJC 200253Z 34009KT 10SM CLR 19/12 A2991 RMK AO2 SLP127 T01940122 53005
KNUQ - Moffett Nas/Mtn, California, USA
Distance from station: N 9mi, 14km
Updated: Thu, 19-Sep-2019 7:56pm PDT

 
Barometer: 29.91 inHg , 1012.9 hPa
2019/09/20 02:56 KNUQ 200256Z A2991 RMK AO2 SLP132 51003 PWINO $
KPAO - Palo Alto, California, USA
Distance from station: NNW 14mi, 23km
Updated: Thu, 19-Sep-2019 8:47pm PDT
Clear
Clear
 Wind from NNW
Wind: NNW 6 mph , 9 km/h
Temperature: 63°F , 17°C
Dew Point: 52°F , 11°C
Humidity: 68%
Barometer: 29.92 inHg , 1013.2 hPa
Clouds: Clear
Visibility: 10 miles , 16 km
2019/09/20 03:47 KPAO 200347Z 34005KT 10SM SKC 17/11 A2992 RMK LAST
 
KRHV - San Jose/Reid, California, USA
Distance from station: ENE 12mi, 19km
Updated: Thu, 19-Sep-2019 8:47pm PDT
Clear
Clear
 Wind from NW
Wind: NW 8 mph , 13 km/h
Temperature: 66°F , 19°C
Dew Point: 54°F , 12°C
Humidity: 64%
Barometer: 29.92 inHg , 1013.2 hPa
Clouds: Clear
Visibility: 10 miles , 16 km
2019/09/20 03:47 KRHV 200347Z 31007KT 10SM SKC 19/12 A2992
KOAK - Oakland, California, USA
Distance from station: NNW 31mi, 50km
Updated: Thu, 19-Sep-2019 7:53pm PDT
Few Clouds
Few Clouds
 Wind from WNW
Wind: WNW 12 mph , 19 km/h
Temperature: 68°F , 20°C
Dew Point: 52°F , 11°C
Humidity: 56%
Barometer: 29.91 inHg , 1012.9 hPa
Clouds: Few Clouds
Visibility: 10 miles , 16 km
Cloud details: Few Clouds 2500 ft
2019/09/20 02:53 KOAK 200253Z 30010KT 10SM FEW025 20/11 A2991 RMK AO2 SLP129 T02000111 56001
KSQL - San Carlos Airpo, California, USA
Distance from station: NW 21mi, 34km
Updated: Thu, 19-Sep-2019 8:47pm PDT
Clear
Clear
 Wind from W
Wind: W 9 mph , 15 km/h
Temperature: 66°F , 19°C
Dew Point: 48°F , 9°C
Humidity: 52%
Barometer: 29.92 inHg , 1013.2 hPa
Clouds: Clear
Visibility: 10 miles , 16 km
2019/09/20 03:47 KSQL 200347Z 27008KT 10SM SKC 19/09 A2992
 
KSFO - San Francisco, California, USA
Distance from station: NW 30mi, 49km
Updated: Thu, 19-Sep-2019 7:56pm PDT
Clear
Clear
 Wind from W
Wind: W 17 mph , 28 km/h
Temperature: 64°F , 18°C
Dew Point: 52°F , 11°C
Humidity: 64%
Barometer: 29.91 inHg , 1012.9 hPa
Clouds: Clear
Visibility: 10 miles , 16 km
2019/09/20 02:56 KSFO 200256Z 27015KT 10SM CLR 18/11 A2991 RMK AO2 SLP128 T01780106 56002
KE16 - San Martin, California, USA
Distance from station: ESE 27mi, 43km
Updated: Thu, 19-Sep-2019 8:35pm PDT
Clear
Clear
 Wind from NNW
Wind: NNW 8 mph , 13 km/h
Temperature: 66°F , 19°C
Dew Point: 50°F , 10°C
Humidity: 56%
Barometer: 29.93 inHg , 1013.5 hPa
Clouds: Clear
Visibility: 10 miles , 16 km
2019/09/20 03:35 KE16 200335Z AUTO 33007KT 10SM CLR 19/10 A2993 RMK AO2 PWINO PNO
KWVI - Watsonville, California, USA
Distance from station: SSE 27mi, 44km
Updated: Fri, 13-Sep-2019 2:53pm PDT
NOT Current
Clear
Clear
 Wind from W
Wind: W 10 mph , 17 km/h
Temperature: 99°F , 37°C
Dew Point: 39°F , 4°C
Humidity: 13%
Barometer: 29.93 inHg , 1013.5 hPa
Clouds: Clear
Visibility: 10 miles , 16 km
2019/09/13 21:53 KWVI 132153Z AUTO 27009KT 10SM CLR 37/04 A2993 RMK AO2 SLP133 T03670039
 
KHAF - Half Moon Bay, California, USA
Distance from station: WNW 31mi, 50km
Updated: Thu, 19-Sep-2019 8:40pm PDT
Clear
Clear
 Wind from N
Wind: N 9 mph , 15 km/h
Temperature: 61°F , 16°C
Dew Point: 54°F , 12°C
Humidity: 77%
Barometer: 29.93 inHg , 1013.5 hPa
Clouds: Clear
Visibility: 10 miles , 16 km
2019/09/20 03:40 KHAF 200340Z AUTO 35008KT 10SM CLR 16/12 A2993 RMK AO2
KHWD - Hayward, California, USA
Distance from station: N 28mi, 44km
Updated: Thu, 19-Sep-2019 7:54pm PDT
Clear
Clear
 Wind from WNW
Wind: WNW 9 mph , 15 km/h
Temperature: 66°F , 19°C
Dew Point: 52°F , 11°C
Humidity: 60%
Barometer: 29.91 inHg , 1012.9 hPa
Clouds: Clear
Visibility: 10 miles , 16 km
2019/09/20 02:54 KHWD 200254Z 29008KT 10SM CLR 19/11 A2991 RMK AO2 SLP137 T01940111 56001
KLVK - Livermore, California, USA
Distance from station: NNE 31mi, 51km
Updated: Thu, 19-Sep-2019 7:53pm PDT
Clear
Clear
 Wind from WNW
Wind: WNW 6 mph , 9 km/h
Temperature: 68°F , 20°C
Dew Point: 50°F , 10°C
Humidity: 53%
Barometer: 29.90 inHg , 1012.5 hPa
Clouds: Clear
Visibility: 10 miles , 16 km
2019/09/20 02:53 KLVK 200253Z 29005KT 10SM CLR 20/10 A2990 RMK AO2 SLP123 T02000100 53004